createdAt,value
2019-02-19T00:00:02.628Z,66.80
2019-02-19T00:02:30.948Z,66.00
2019-02-19T00:04:59.497Z,66.30
2019-02-19T00:07:28.089Z,66.60
2019-02-19T00:09:56.403Z,66.90
2019-02-19T00:12:24.729Z,67.00
2019-02-19T00:14:53.316Z,67.00
2019-02-19T00:17:21.713Z,67.00
2019-02-19T00:19:50.108Z,67.00
2019-02-19T00:22:18.717Z,66.70
2019-02-19T00:24:47.037Z,66.60
2019-02-19T00:27:15.367Z,66.70
2019-02-19T00:29:43.678Z,66.70
2019-02-19T00:32:12.017Z,66.80
2019-02-19T00:34:40.493Z,66.80
2019-02-19T00:37:08.894Z,67.00
2019-02-19T00:39:37.280Z,67.30
2019-02-19T00:42:05.586Z,67.30
2019-02-19T00:44:34.085Z,67.60
2019-02-19T00:47:02.386Z,67.90
2019-02-19T00:49:30.730Z,67.90
2019-02-19T00:51:59.109Z,68.90
2019-02-19T00:54:27.434Z,67.80
2019-02-19T00:56:56.189Z,67.50
2019-02-19T00:59:24.842Z,67.10
2019-02-19T01:01:53.333Z,66.50
2019-02-19T01:04:21.653Z,66.60
2019-02-19T01:06:49.948Z,66.60
2019-02-19T01:09:18.290Z,66.20
2019-02-19T01:11:46.915Z,66.60
2019-02-19T01:14:15.241Z,66.20
2019-02-19T01:16:43.618Z,66.10
2019-02-19T01:19:12.109Z,65.70
2019-02-19T01:21:41.121Z,65.30
2019-02-19T01:24:09.462Z,65.10
2019-02-19T01:26:37.917Z,64.60
2019-02-19T01:29:06.507Z,63.70
2019-02-19T01:31:35.008Z,63.50
2019-02-19T01:34:03.549Z,63.60
2019-02-19T01:36:32.056Z,63.60
2019-02-19T01:39:00.534Z,63.60
2019-02-19T01:41:28.848Z,63.10
2019-02-19T01:43:57.167Z,63.30
2019-02-19T01:46:25.766Z,63.00
2019-02-19T01:48:54.092Z,63.10
2019-02-19T01:51:22.754Z,63.70
2019-02-19T01:53:51.237Z,63.70
2019-02-19T01:56:19.566Z,63.70
2019-02-19T01:58:48.138Z,63.30
2019-02-19T02:01:16.704Z,63.10
2019-02-19T02:03:45.017Z,63.00
2019-02-19T02:06:13.521Z,63.00
2019-02-19T02:08:41.895Z,63.20
2019-02-19T02:11:10.259Z,63.30
2019-02-19T02:13:38.686Z,63.40
2019-02-19T02:16:07.027Z,63.60
2019-02-19T02:18:35.339Z,63.70
2019-02-19T02:21:03.837Z,63.60
2019-02-19T02:23:32.231Z,63.70
2019-02-19T02:26:00.729Z,64.40
2019-02-19T02:28:29.114Z,63.60
2019-02-19T02:30:57.461Z,63.40
2019-02-19T02:33:25.766Z,63.30
2019-02-19T02:35:54.087Z,63.60
2019-02-19T02:38:22.464Z,63.60
2019-02-19T02:40:50.784Z,63.80
2019-02-19T02:43:19.275Z,64.00
2019-02-19T02:45:53.533Z,64.00
2019-02-19T02:48:17.655Z,63.80
2019-02-19T02:50:46.044Z,63.60
2019-02-19T02:53:14.432Z,63.40
2019-02-19T02:55:42.904Z,63.40
2019-02-19T02:58:11.510Z,63.40
2019-02-19T03:00:39.835Z,63.40
2019-02-19T03:03:08.405Z,63.20
2019-02-19T03:05:38.358Z,63.10
2019-02-19T03:08:07.062Z,63.20
2019-02-19T03:10:35.701Z,63.00
2019-02-19T03:13:04.193Z,62.80
2019-02-19T03:15:32.507Z,62.70
2019-02-19T03:18:01.007Z,62.70
2019-02-19T03:20:29.476Z,62.80
2019-02-19T03:22:57.804Z,62.80
2019-02-19T03:25:26.106Z,62.90
2019-02-19T03:27:54.769Z,63.00
2019-02-19T03:30:23.085Z,62.90
2019-02-19T03:32:51.598Z,63.00
2019-02-19T03:35:19.972Z,63.00
2019-02-19T03:37:48.537Z,63.50
2019-02-19T03:40:17.034Z,63.60
2019-02-19T03:42:45.524Z,63.60
2019-02-19T03:45:13.913Z,63.60
2019-02-19T03:47:42.505Z,63.70
2019-02-19T03:50:10.892Z,63.90
2019-02-19T03:52:39.377Z,64.00
2019-02-19T03:55:07.772Z,64.00
2019-02-19T03:57:36.087Z,64.00
2019-02-19T04:00:04.956Z,64.00
2019-02-19T04:02:33.266Z,64.00
2019-02-19T04:05:01.675Z,64.10
2019-02-19T04:07:30.383Z,64.40
2019-02-19T04:09:58.790Z,64.90
2019-02-19T04:12:27.170Z,65.30
2019-02-19T04:14:55.498Z,66.00
2019-02-19T04:17:23.823Z,66.20
2019-02-19T04:19:52.135Z,66.00
2019-02-19T04:22:20.634Z,65.70
2019-02-19T04:24:49.126Z,65.60
2019-02-19T04:27:17.465Z,65.50
2019-02-19T04:29:46.038Z,65.60
2019-02-19T04:32:14.443Z,65.90
2019-02-19T04:34:42.764Z,66.20
2019-02-19T04:37:11.273Z,66.30
2019-02-19T04:39:39.927Z,66.60
2019-02-19T04:42:08.758Z,67.00
2019-02-19T04:44:37.245Z,67.10
2019-02-19T04:47:05.581Z,67.30
2019-02-19T04:49:33.878Z,68.10
2019-02-19T04:52:02.360Z,68.00
2019-02-19T04:54:30.840Z,67.90
2019-02-19T04:56:59.186Z,67.80
2019-02-19T04:59:27.681Z,67.60
2019-02-19T05:01:56.161Z,67.50
2019-02-19T05:04:24.798Z,67.70
2019-02-19T05:06:53.117Z,67.90
2019-02-19T05:09:21.445Z,68.20
2019-02-19T05:11:49.819Z,68.50
2019-02-19T05:14:18.392Z,68.80
2019-02-19T05:16:46.873Z,68.70
2019-02-19T05:19:15.214Z,68.30
2019-02-19T05:21:43.527Z,68.10
2019-02-19T05:24:11.873Z,67.80
2019-02-19T05:26:40.248Z,67.60
2019-02-19T05:29:08.576Z,68.00
2019-02-19T05:31:37.018Z,68.10
2019-02-19T05:34:05.370Z,68.70
2019-02-19T05:36:33.849Z,68.80
2019-02-19T05:39:02.177Z,69.00
2019-02-19T05:41:30.666Z,68.80
2019-02-19T05:43:59.160Z,68.90
2019-02-19T05:46:27.470Z,69.30
2019-02-19T05:48:55.866Z,69.30
2019-02-19T05:51:24.194Z,69.30
2019-02-19T05:53:52.850Z,69.10
2019-02-19T05:56:21.178Z,69.50
2019-02-19T05:58:49.802Z,69.40
2019-02-19T06:01:18.129Z,69.60
2019-02-19T06:03:46.442Z,69.10
2019-02-19T06:06:20.464Z,69.30
2019-02-19T06:08:51.851Z,69.40
2019-02-19T06:11:20.349Z,69.60
2019-02-19T06:13:54.608Z,70.00
2019-02-19T06:16:23.280Z,70.10
2019-02-19T06:18:51.659Z,70.50
2019-02-19T06:21:22.349Z,70.50
2019-02-19T06:23:52.605Z,70.70
2019-02-19T06:26:20.914Z,70.80
2019-02-19T06:28:49.300Z,70.70
2019-02-19T06:31:17.804Z,70.60
2019-02-19T06:33:46.125Z,70.60
2019-02-19T06:36:14.630Z,70.50
2019-02-19T06:38:43.218Z,70.50
2019-02-19T06:41:11.553Z,70.50
2019-02-19T06:43:39.866Z,70.50
2019-02-19T06:46:08.434Z,70.50
2019-02-19T06:48:36.808Z,70.80
2019-02-19T06:51:05.208Z,70.80
2019-02-19T06:53:33.687Z,70.70
2019-02-19T06:56:02.066Z,70.50
2019-02-19T06:58:30.704Z,70.30
2019-02-19T07:00:59.015Z,70.10
2019-02-19T07:03:37.500Z,70.20
2019-02-19T07:06:05.986Z,69.70
2019-02-19T07:08:34.387Z,69.50
2019-02-19T07:11:02.703Z,69.60
2019-02-19T07:13:31.272Z,69.60
2019-02-19T07:15:59.905Z,68.90
2019-02-19T07:18:28.450Z,68.70
2019-02-19T07:20:56.966Z,68.60
2019-02-19T07:23:25.276Z,68.30
2019-02-19T07:25:53.754Z,67.90
2019-02-19T07:28:22.147Z,67.50
2019-02-19T07:30:50.632Z,67.20
2019-02-19T07:33:18.964Z,67.30
2019-02-19T07:35:47.280Z,66.70
2019-02-19T07:38:15.690Z,66.60
2019-02-19T07:40:44.011Z,65.80
2019-02-19T07:43:12.499Z,65.30
2019-02-19T07:45:40.839Z,64.70
2019-02-19T07:48:09.154Z,64.50
2019-02-19T07:50:37.484Z,64.00
2019-02-19T07:53:05.792Z,63.90
2019-02-19T07:55:34.529Z,63.60
2019-02-19T07:58:02.912Z,63.60
2019-02-19T08:00:31.280Z,63.40
2019-02-19T08:02:59.591Z,63.10
2019-02-19T08:05:27.908Z,62.90
2019-02-19T08:07:56.221Z,62.10
2019-02-19T08:10:24.613Z,61.80
2019-02-19T08:12:52.926Z,61.60
2019-02-19T08:15:21.531Z,61.00
2019-02-19T08:17:49.928Z,60.60
2019-02-19T08:20:18.260Z,60.00
2019-02-19T08:22:46.560Z,59.30
2019-02-19T08:25:14.893Z,58.90
2019-02-19T08:27:43.505Z,58.50
2019-02-19T08:30:12.011Z,58.30
2019-02-19T08:32:40.387Z,57.80
2019-02-19T08:35:08.710Z,57.30
2019-02-19T08:37:37.209Z,57.20
2019-02-19T08:40:08.265Z,57.10
2019-02-19T08:42:36.849Z,56.80
2019-02-19T08:45:07.098Z,56.60
2019-02-19T08:47:42.363Z,56.20
2019-02-19T08:50:07.347Z,55.90
2019-02-19T08:52:35.679Z,55.20
2019-02-19T08:55:04.529Z,54.80
2019-02-19T08:57:32.869Z,54.10
2019-02-19T09:00:01.190Z,53.90
2019-02-19T09:02:29.696Z,53.40
2019-02-19T09:04:58.004Z,53.20
2019-02-19T09:07:26.346Z,53.20
2019-02-19T09:09:54.828Z,52.60
2019-02-19T09:12:23.336Z,52.30
2019-02-19T09:14:51.921Z,52.20
2019-02-19T09:17:20.925Z,52.10
2019-02-19T09:19:49.318Z,51.00
2019-02-19T09:22:17.632Z,50.80
2019-02-19T09:24:46.100Z,50.80
2019-02-19T09:27:14.412Z,50.30
2019-02-19T09:29:42.941Z,50.00
2019-02-19T09:32:11.253Z,49.50
2019-02-19T09:34:39.757Z,49.20
2019-02-19T09:37:08.144Z,49.10
2019-02-19T09:39:36.741Z,48.70
2019-02-19T09:42:05.116Z,47.90
2019-02-19T09:44:33.815Z,47.30
2019-02-19T09:47:02.969Z,47.10
2019-02-19T09:49:31.369Z,46.90
2019-02-19T09:51:59.740Z,46.90
2019-02-19T09:54:28.235Z,46.70
2019-02-19T09:56:56.546Z,47.20
2019-02-19T09:59:24.871Z,46.70
2019-02-19T10:01:53.179Z,46.10
2019-02-19T10:04:21.590Z,46.00
2019-02-19T10:06:49.967Z,46.50
2019-02-19T10:09:18.337Z,45.70
2019-02-19T10:11:46.730Z,45.80
2019-02-19T10:14:15.862Z,46.00
2019-02-19T10:16:44.237Z,45.20
2019-02-19T10:19:12.567Z,45.50
2019-02-19T10:21:40.893Z,45.40
2019-02-19T10:24:09.219Z,45.70
2019-02-19T10:26:37.534Z,45.20
2019-02-19T10:29:06.036Z,45.30
2019-02-19T10:31:34.422Z,45.50
2019-02-19T10:34:02.978Z,45.30
2019-02-19T10:36:31.297Z,45.40
2019-02-19T10:38:59.680Z,45.50
2019-02-19T10:41:28.028Z,45.00
2019-02-19T10:43:56.526Z,44.90
2019-02-19T10:46:24.915Z,45.00
2019-02-19T10:48:53.420Z,44.60
2019-02-19T10:51:21.796Z,44.50
2019-02-19T10:53:50.297Z,44.90
2019-02-19T10:56:18.795Z,44.70
2019-02-19T10:58:47.288Z,44.70
2019-02-19T11:01:15.676Z,44.00
2019-02-19T11:03:44.446Z,43.70
2019-02-19T11:06:12.772Z,44.00
2019-02-19T11:08:41.117Z,44.10
2019-02-19T11:11:09.490Z,43.00
2019-02-19T11:13:37.834Z,42.90
2019-02-19T11:16:06.329Z,43.20
2019-02-19T11:18:34.823Z,42.60
2019-02-19T11:21:03.293Z,42.80
2019-02-19T11:23:31.653Z,42.50
2019-02-19T11:26:00.017Z,42.20
2019-02-19T11:28:29.590Z,42.20
2019-02-19T11:30:58.277Z,42.10
2019-02-19T11:33:26.936Z,41.60
2019-02-19T11:35:55.522Z,41.70
2019-02-19T11:38:23.862Z,42.10
2019-02-19T11:40:52.337Z,42.60
2019-02-19T11:43:20.842Z,43.00
2019-02-19T11:45:49.494Z,43.40
2019-02-19T11:48:19.160Z,43.50
2019-02-19T11:50:47.742Z,43.90
2019-02-19T11:53:16.116Z,44.30
2019-02-19T11:55:44.518Z,44.10
2019-02-19T11:58:13.108Z,44.20
2019-02-19T12:00:45.368Z,44.50
2019-02-19T12:03:13.955Z,44.70
2019-02-19T12:05:42.354Z,44.40
2019-02-19T12:08:10.670Z,44.40
2019-02-19T12:10:39.180Z,44.30
2019-02-19T12:13:07.652Z,44.60
2019-02-19T12:15:36.052Z,44.50
2019-02-19T12:18:04.696Z,44.70
2019-02-19T12:20:33.097Z,45.10
2019-02-19T12:23:01.410Z,44.80
2019-02-19T12:25:29.823Z,45.20
2019-02-19T12:27:58.201Z,45.10
2019-02-19T12:30:26.552Z,45.20
2019-02-19T12:32:54.957Z,45.50
2019-02-19T12:35:23.442Z,45.40
2019-02-19T12:37:51.772Z,45.50
2019-02-19T12:40:20.161Z,45.60
2019-02-19T12:42:48.489Z,45.80
2019-02-19T12:45:16.973Z,45.50
2019-02-19T12:47:45.369Z,45.40
2019-02-19T12:50:17.994Z,45.20
2019-02-19T12:52:46.586Z,45.40
2019-02-19T12:55:14.926Z,45.30
2019-02-19T12:57:43.256Z,44.90
2019-02-19T13:00:16.631Z,44.10
2019-02-19T13:02:45.192Z,41.50
2019-02-19T13:05:15.054Z,38.60
2019-02-19T13:07:43.384Z,35.40
2019-02-19T13:10:12.235Z,33.20
2019-02-19T13:12:40.554Z,34.40
2019-02-19T13:15:12.114Z,36.90
2019-02-19T13:17:40.626Z,38.30
2019-02-19T13:20:12.045Z,39.40
2019-02-19T13:22:40.552Z,39.60
2019-02-19T13:25:11.365Z,38.30
2019-02-19T13:27:39.689Z,35.10
2019-02-19T13:30:11.061Z,32.90
2019-02-19T13:32:39.668Z,33.10
2019-02-19T13:35:09.917Z,32.30
2019-02-19T13:37:38.404Z,32.50
2019-02-19T13:40:09.947Z,33.60
2019-02-19T13:42:38.405Z,34.70
2019-02-19T13:45:09.299Z,35.50
2019-02-19T13:47:37.940Z,36.00
2019-02-19T13:50:12.266Z,36.60
2019-02-19T13:52:44.929Z,36.90
2019-02-19T13:55:15.422Z,37.20
2019-02-19T13:57:43.730Z,38.20
2019-02-19T14:00:13.708Z,38.40
2019-02-19T14:02:42.047Z,38.60
2019-02-19T14:05:10.924Z,38.30
2019-02-19T14:07:39.504Z,36.70
2019-02-19T14:10:10.201Z,36.20
2019-02-19T14:12:38.678Z,37.30
2019-02-19T14:15:11.304Z,38.50
2019-02-19T14:17:39.896Z,39.50
2019-02-19T14:20:10.101Z,39.90
2019-02-19T14:22:46.167Z,40.20
2019-02-19T14:25:28.517Z,40.10
2019-02-19T14:28:16.329Z,39.90
2019-02-19T14:30:58.621Z,40.10
2019-02-19T14:33:37.331Z,40.30
2019-02-19T14:36:07.449Z,40.30
2019-02-19T14:38:40.296Z,38.00
2019-02-19T14:41:10.276Z,37.30
2019-02-19T14:43:49.042Z,37.90
2019-02-19T14:46:19.098Z,37.60
2019-02-19T14:48:57.893Z,35.80
2019-02-19T14:51:28.305Z,33.20
2019-02-19T14:54:14.740Z,31.30
2019-02-19T14:56:47.709Z,31.50
2019-02-19T14:59:33.925Z,32.20
2019-02-19T15:02:04.335Z,34.00
2019-02-19T15:04:43.533Z,34.30
2019-02-19T15:07:28.397Z,33.40
2019-02-19T15:10:14.984Z,32.80
2019-02-19T15:13:00.317Z,33.00
2019-02-19T15:15:30.601Z,32.60
2019-02-19T15:18:03.346Z,33.50
2019-02-19T15:20:33.329Z,33.70
2019-02-19T15:23:06.562Z,33.70
2019-02-19T15:25:39.159Z,33.90
2019-02-19T15:28:17.965Z,34.30
2019-02-19T15:30:57.048Z,36.20
2019-02-19T15:33:29.768Z,38.40
2019-02-19T15:36:16.178Z,40.00
2019-02-19T15:38:52.393Z,41.80
2019-02-19T15:41:39.321Z,42.90
2019-02-19T15:44:09.528Z,43.30
2019-02-19T15:46:51.514Z,43.80
2019-02-19T15:49:21.677Z,44.20
2019-02-19T15:51:51.630Z,44.70
2019-02-19T15:54:21.605Z,45.20
2019-02-19T15:56:54.305Z,45.90
2019-02-19T15:59:24.507Z,46.40
2019-02-19T16:01:54.671Z,46.80
2019-02-19T16:04:24.706Z,47.10
2019-02-19T16:07:03.525Z,47.20
2019-02-19T16:09:33.505Z,47.40
2019-02-19T16:12:03.821Z,47.30
2019-02-19T16:14:39.273Z,47.80
2019-02-19T16:17:12.109Z,48.00
2019-02-19T16:19:56.943Z,48.60
2019-02-19T16:22:25.324Z,48.30
2019-02-19T16:24:57.971Z,48.50
2019-02-19T16:27:34.261Z,48.70
2019-02-19T16:30:10.146Z,49.10
2019-02-19T16:32:43.280Z,49.10
2019-02-19T16:35:16.171Z,49.30
2019-02-19T16:37:51.947Z,49.80
2019-02-19T16:40:22.191Z,50.20
2019-02-19T16:42:52.384Z,50.40
2019-02-19T16:45:22.615Z,50.50
2019-02-19T16:48:11.156Z,50.80
2019-02-19T16:50:41.378Z,51.00
2019-02-19T16:53:20.480Z,51.20
2019-02-19T16:55:50.441Z,51.40
2019-02-19T16:58:29.549Z,51.50
2019-02-19T17:00:59.686Z,51.70
2019-02-19T17:03:48.097Z,51.90
2019-02-19T17:06:24.121Z,52.00
2019-02-19T17:08:57.067Z,52.20
2019-02-19T17:11:29.868Z,52.30
2019-02-19T17:14:02.671Z,52.40
2019-02-19T17:16:49.209Z,52.60
2019-02-19T17:19:22.236Z,52.80
2019-02-19T17:22:01.463Z,52.90
2019-02-19T17:24:31.439Z,53.00
2019-02-19T17:27:17.740Z,53.20
2019-02-19T17:29:49.966Z,53.40
2019-02-19T17:32:25.689Z,53.40
2019-02-19T17:34:55.755Z,53.40
2019-02-19T17:37:28.611Z,53.60
2019-02-19T17:40:07.702Z,53.80
2019-02-19T17:42:37.990Z,53.90
2019-02-19T17:45:20.499Z,54.10
2019-02-19T17:47:53.250Z,54.20
2019-02-19T17:50:23.423Z,54.30
2019-02-19T17:53:11.774Z,54.40
2019-02-19T17:55:47.827Z,54.60
2019-02-19T17:58:27.102Z,54.70
2019-02-19T18:01:09.377Z,54.70
2019-02-19T18:03:41.902Z,54.80
2019-02-19T18:06:18.138Z,54.90
2019-02-19T18:08:57.150Z,55.00
2019-02-19T18:11:30.060Z,55.20
2019-02-19T18:14:02.834Z,55.30
2019-02-19T18:16:32.805Z,55.20
2019-02-19T18:19:01.529Z,55.20
2019-02-19T18:21:30.093Z,55.90
2019-02-19T18:23:58.958Z,55.50
2019-02-19T18:26:27.282Z,55.60
2019-02-19T18:28:56.032Z,55.50
2019-02-19T18:31:24.354Z,55.70
2019-02-19T18:33:52.691Z,55.80
2019-02-19T18:36:21.068Z,55.70
2019-02-19T18:38:49.655Z,55.90
2019-02-19T18:41:18.169Z,56.00
2019-02-19T18:43:46.547Z,56.00
2019-02-19T18:46:15.211Z,56.10
2019-02-19T18:48:43.804Z,56.20
2019-02-19T18:51:12.170Z,56.30
2019-02-19T18:53:40.901Z,56.60
2019-02-19T18:56:09.416Z,56.80
2019-02-19T18:58:38.176Z,57.00
2019-02-19T19:01:08.582Z,57.20
2019-02-19T19:03:37.500Z,57.50
2019-02-19T19:06:05.851Z,57.80
2019-02-19T19:08:34.337Z,58.00
2019-02-19T19:11:03.175Z,58.30
2019-02-19T19:13:31.569Z,58.40
2019-02-19T19:16:00.172Z,58.50
2019-02-19T19:18:28.611Z,58.70
2019-02-19T19:20:57.329Z,58.80
2019-02-19T19:23:25.698Z,59.00
2019-02-19T19:25:54.073Z,59.20
2019-02-19T19:28:22.701Z,59.20
2019-02-19T19:30:51.251Z,59.20
2019-02-19T19:33:19.609Z,59.40
2019-02-19T19:35:48.067Z,59.70
2019-02-19T19:38:16.443Z,60.00
2019-02-19T19:40:44.813Z,60.20
2019-02-19T19:43:13.465Z,60.50
2019-02-19T19:45:41.856Z,60.60
2019-02-19T19:48:10.367Z,60.80
2019-02-19T19:50:38.732Z,61.70
2019-02-19T19:53:07.248Z,61.10
2019-02-19T19:55:35.625Z,61.10
2019-02-19T19:58:04.063Z,61.30
2019-02-19T20:00:32.635Z,62.20
2019-02-19T20:03:01.106Z,62.30
2019-02-19T20:05:29.435Z,62.40
2019-02-19T20:07:58.121Z,62.70
2019-02-19T20:10:27.043Z,63.00
2019-02-19T20:12:55.683Z,63.30
2019-02-19T20:15:24.787Z,63.80
2019-02-19T20:17:53.195Z,64.50
2019-02-19T20:20:21.873Z,64.50
2019-02-19T20:22:50.300Z,64.80
2019-02-19T20:25:18.645Z,65.10
2019-02-19T20:27:47.247Z,65.40
2019-02-19T20:30:16.422Z,65.60
2019-02-19T20:32:45.062Z,65.80
2019-02-19T20:35:13.404Z,65.80
2019-02-19T20:37:41.741Z,66.30
2019-02-19T20:40:11.642Z,66.10
2019-02-19T20:42:40.408Z,66.40
2019-02-19T20:45:12.703Z,66.60
2019-02-19T20:47:41.397Z,66.60
2019-02-19T20:50:11.075Z,66.70
2019-02-19T20:52:39.574Z,66.60
2019-02-19T20:55:09.940Z,66.30
2019-02-19T20:57:38.372Z,66.20
2019-02-19T21:00:16.317Z,66.10
2019-02-19T21:02:44.797Z,66.40
2019-02-19T21:05:13.172Z,66.40
2019-02-19T21:07:41.779Z,66.40
2019-02-19T21:10:17.727Z,66.70
2019-02-19T21:12:46.040Z,67.30
2019-02-19T21:15:14.745Z,67.40
2019-02-19T21:17:46.218Z,67.70
2019-02-19T21:20:16.376Z,67.60
2019-02-19T21:22:44.778Z,68.10
2019-02-19T21:25:13.468Z,68.60
2019-02-19T21:27:44.600Z,68.90
2019-02-19T21:30:16.244Z,69.00
2019-02-19T21:32:44.669Z,68.70
2019-02-19T21:35:13.227Z,68.70
2019-02-19T21:37:41.553Z,69.40
2019-02-19T21:40:12.316Z,69.60
2019-02-19T21:42:40.735Z,69.90
2019-02-19T21:45:10.804Z,70.20
2019-02-19T21:47:39.466Z,70.60
2019-02-19T21:50:15.631Z,70.60
2019-02-19T21:52:44.426Z,70.70
2019-02-19T21:55:20.194Z,70.20
2019-02-19T21:57:55.957Z,69.70
2019-02-19T22:00:27.635Z,71.30
2019-02-19T22:03:18.653Z,71.40
2019-02-19T22:06:19.791Z,71.60
2019-02-19T22:11:49.747Z,72.10
2019-02-19T22:14:34.052Z,71.30
2019-02-19T22:16:50.323Z,71.50
2019-02-19T22:19:21.295Z,71.80
2019-02-19T22:22:03.433Z,72.20
2019-02-19T22:24:35.286Z,72.50
2019-02-19T22:27:04.930Z,73.20
2019-02-19T22:29:33.509Z,73.00
2019-02-19T22:32:02.347Z,72.90
2019-02-19T22:34:39.893Z,73.00
2019-02-19T22:37:08.283Z,73.20
2019-02-19T22:39:36.808Z,73.40
2019-02-19T22:42:05.207Z,73.30
2019-02-19T22:44:36.196Z,73.70
2019-02-19T22:47:04.550Z,73.60
2019-02-19T22:49:33.114Z,73.80
2019-02-19T22:52:01.583Z,73.80
2019-02-19T22:54:31.874Z,74.00
2019-02-19T22:57:02.274Z,74.10
2019-02-19T22:59:30.681Z,74.30
2019-02-19T23:02:09.528Z,74.30
2019-02-19T23:04:37.919Z,74.30
2019-02-19T23:07:07.879Z,74.70
2019-02-19T23:09:38.785Z,74.40
2019-02-19T23:12:07.314Z,74.10
2019-02-19T23:14:35.818Z,74.00
2019-02-19T23:17:04.466Z,73.60
2019-02-19T23:19:32.986Z,73.40
2019-02-19T23:22:01.650Z,73.50
2019-02-19T23:24:32.078Z,73.70
2019-02-19T23:27:00.788Z,73.70
2019-02-19T23:29:29.335Z,74.20
2019-02-19T23:31:57.904Z,74.10
2019-02-19T23:34:26.230Z,74.30
2019-02-19T23:36:56.456Z,74.40
2019-02-19T23:39:24.847Z,74.40
2019-02-19T23:41:53.456Z,74.70
2019-02-19T23:44:21.940Z,74.80
2019-02-19T23:46:50.544Z,75.00
2019-02-19T23:49:19.036Z,74.80
2019-02-19T23:51:47.384Z,74.70
2019-02-19T23:54:15.702Z,74.90
2019-02-19T23:56:44.180Z,74.60
2019-02-19T23:59:12.730Z,74.90
